Time;durP1;ratioP1;P1;durP2;ratioP2;P2;SDS_P1;SDS_P2;PMS_P1;PMS_P2;Temp;Humidity;BMP_temperature;BMP_pressure;BME280_temperature;BME280_humidity;BME280_pressure;Samples;Min_cycle;Max_cycle;Signal;HPM_P1;HPM_P2
2022/08/16 00:01:35;;;;;;;11.10;7.97;;;;;;;;;;5095423;28;20967;-73
2022/08/16 00:04:06;;;;;;;7.18;6.32;;;;;;;;;;5090614;28;20059;-73
2022/08/16 00:06:35;;;;;;;9.52;7.95;;;;;;;;;;5081116;28;20168;-74
2022/08/16 00:09:04;;;;;;;13.90;7.78;;;;;;;;;;5090887;28;20048;-73
2022/08/16 00:11:31;;;;;;;8.73;7.30;;;;;;;;;;5092702;28;20059;-74
2022/08/16 00:13:57;;;;;;;7.97;7.15;;;;;;;;;;5090677;28;20060;-74
2022/08/16 00:16:26;;;;;;;8.90;7.65;;;;;;;;;;5089692;28;20095;-74
2022/08/16 00:19:18;;;;;;;11.68;7.75;;;;;;;;;;5089213;28;20052;-74
2022/08/16 00:21:48;;;;;;;8.63;7.60;;;;;;;;;;5100383;28;20100;-74
2022/08/16 00:24:20;;;;;;;11.50;7.97;;;;;;;;;;5111178;28;20137;-74
2022/08/16 00:26:58;;;;;;;9.43;7.68;;;;;;;;;;5106338;28;20142;-75
2022/08/16 00:29:25;;;;;;;9.77;8.25;;;;;;;;;;5093486;28;20052;-74
2022/08/16 00:31:55;;;;;;;8.27;7.47;;;;;;;;;;5086751;28;20135;-74
2022/08/16 00:34:27;;;;;;;10.82;8.05;;;;;;;;;;5091140;28;20068;-74
2022/08/16 00:37:13;;;;;;;9.07;7.78;;;;;;;;;;5093540;28;20049;-74
2022/08/16 00:39:44;;;;;;;12.15;8.98;;;;;;;;;;5088865;28;20056;-74
2022/08/16 00:42:12;;;;;;;12.88;8.73;;;;;;;;;;5086111;28;20045;-75
2022/08/16 00:44:42;;;;;;;9.23;7.97;;;;;;;;;;5091288;28;20056;-74
2022/08/16 00:47:15;;;;;;;10.70;8.73;;;;;;;;;;5092255;28;20056;-74
2022/08/16 00:49:42;;;;;;;8.30;7.50;;;;;;;;;;5093618;28;20052;-75
2022/08/16 00:52:10;;;;;;;10.98;8.30;;;;;;;;;;5087304;28;20080;-74
2022/08/16 00:54:58;;;;;;;10.20;8.32;;;;;;;;;;5077966;28;20130;-75
2022/08/16 00:57:26;;;;;;;8.27;7.43;;;;;;;;;;5093320;28;20059;-74
2022/08/16 01:00:12;;;;;;;9.38;8.05;;;;;;;;;;5091682;28;20049;-74
2022/08/16 01:02:45;;;;;;;9.00;7.97;;;;;;;;;;5083660;28;20135;-73
2022/08/16 01:05:14;;;;;;;9.50;7.55;;;;;;;;;;5093797;28;20052;-73
2022/08/16 01:07:43;;;;;;;10.40;7.60;;;;;;;;;;5088995;28;20048;-74
2022/08/16 01:10:21;;;;;;;9.45;8.30;;;;;;;;;;5089493;28;20052;-74
2022/08/16 01:13:01;;;;;;;13.55;8.45;;;;;;;;;;5080556;28;20567;-74
2022/08/16 01:15:30;;;;;;;10.05;8.20;;;;;;;;;;5093459;28;20459;-73
2022/08/16 01:17:58;;;;;;;11.05;8.43;;;;;;;;;;5099179;28;20500;-74
2022/08/16 01:20:25;;;;;;;9.07;8.18;;;;;;;;;;5102685;28;20056;-74
2022/08/16 01:22:58;;;;;;;10.40;8.30;;;;;;;;;;5086566;28;20167;-74
2022/08/16 01:25:38;;;;;;;11.05;8.48;;;;;;;;;;5092525;28;20102;-74
2022/08/16 01:28:08;;;;;;;10.15;8.25;;;;;;;;;;5087159;28;20057;-74
2022/08/16 01:30:36;;;;;;;9.00;8.07;;;;;;;;;;5094414;28;20045;-74
2022/08/16 01:33:16;;;;;;;9.98;7.80;;;;;;;;;;5091019;28;20059;-74
2022/08/16 01:35:47;;;;;;;13.10;7.60;;;;;;;;;;5086672;28;20052;-74
2022/08/16 01:38:18;;;;;;;11.63;8.85;;;;;;;;;;5091918;28;20573;-74
2022/08/16 01:40:45;;;;;;;9.65;8.10;;;;;;;;;;5092478;28;20482;-73
2022/08/16 01:43:12;;;;;;;8.50;7.60;;;;;;;;;;5082781;28;20080;-74
2022/08/16 01:45:40;;;;;;;10.85;9.00;;;;;;;;;;5084467;28;20150;-74
2022/08/16 01:48:09;;;;;;;10.90;8.82;;;;;;;;;;5093661;28;20052;-74
2022/08/16 01:50:47;;;;;;;10.30;8.43;;;;;;;;;;5091581;28;20106;-74
2022/08/16 01:53:34;;;;;;;12.70;9.68;;;;;;;;;;5086049;28;20052;-74
2022/08/16 01:56:00;;;;;;;11.18;8.90;;;;;;;;;;5092933;28;20110;-74
2022/08/16 01:58:29;;;;;;;11.90;9.50;;;;;;;;;;5090946;28;20044;-73
2022/08/16 02:00:56;;;;;;;11.35;10.10;;;;;;;;;;5087383;28;20499;-73
2022/08/16 02:03:23;;;;;;;11.48;9.80;;;;;;;;;;5092973;28;20059;-72
2022/08/16 02:05:51;;;;;;;13.43;10.80;;;;;;;;;;5091752;28;20052;-73
2022/08/16 02:08:18;;;;;;;16.05;10.15;;;;;;;;;;5086361;28;20062;-73
2022/08/16 02:10:59;;;;;;;13.07;10.80;;;;;;;;;;5092464;28;20087;-73
2022/08/16 02:13:26;;;;;;;14.77;10.52;;;;;;;;;;5092424;28;20589;-72
2022/08/16 02:15:57;;;;;;;14.38;9.65;;;;;;;;;;5106454;28;20139;-73
2022/08/16 02:18:24;;;;;;;11.32;9.52;;;;;;;;;;5095760;28;20048;-72
2022/08/16 02:20:51;;;;;;;11.70;10.50;;;;;;;;;;5083685;28;20992;-73
2022/08/16 02:23:19;;;;;;;10.68;9.57;;;;;;;;;;5091508;28;20151;-73
2022/08/16 02:25:46;;;;;;;11.38;9.73;;;;;;;;;;5092853;28;20052;-73
2022/08/16 02:28:19;;;;;;;14.27;9.75;;;;;;;;;;5075415;28;20140;-75
2022/08/16 02:30:49;;;;;;;12.07;9.88;;;;;;;;;;5079806;28;20087;-73
2022/08/16 02:33:17;;;;;;;11.95;9.63;;;;;;;;;;5093249;28;20118;-73
2022/08/16 02:35:43;;;;;;;11.52;10.00;;;;;;;;;;5093052;28;20493;-73
2022/08/16 02:38:23;;;;;;;10.85;9.70;;;;;;;;;;5099589;28;20098;-73
2022/08/16 02:40:51;;;;;;;12.65;10.20;;;;;;;;;;5101193;28;20106;-73
2022/08/16 02:43:20;;;;;;;11.50;9.48;;;;;;;;;;5091171;28;20056;-73
2022/08/16 02:45:56;;;;;;;13.10;10.85;;;;;;;;;;5087551;28;20110;-73
2022/08/16 02:48:23;;;;;;;18.58;10.63;;;;;;;;;;5072009;28;20059;-73
2022/08/16 02:51:00;;;;;;;11.15;9.52;;;;;;;;;;5089751;28;20057;-73
2022/08/16 02:53:32;;;;;;;11.20;9.52;;;;;;;;;;5092501;28;20053;-74
2022/08/16 02:55:59;;;;;;;13.15;10.07;;;;;;;;;;5092042;28;20052;-74
2022/08/16 02:58:26;;;;;;;11.77;10.57;;;;;;;;;;5075768;28;20502;-73
2022/08/16 03:00:54;;;;;;;11.57;9.40;;;;;;;;;;5082583;28;20548;-73
2022/08/16 03:03:23;;;;;;;12.35;9.73;;;;;;;;;;5088261;28;20537;-73
2022/08/16 03:05:50;;;;;;;12.63;9.60;;;;;;;;;;5082145;28;20059;-72
2022/08/16 03:08:19;;;;;;;11.23;9.25;;;;;;;;;;5080857;28;20052;-72
2022/08/16 03:11:05;;;;;;;11.55;9.35;;;;;;;;;;5095344;27;20484;-74
2022/08/16 03:13:48;;;;;;;13.85;10.02;;;;;;;;;;5092206;28;20061;-74
2022/08/16 03:16:16;;;;;;;11.35;9.13;;;;;;;;;;5095073;28;20074;-75
2022/08/16 03:19:03;;;;;;;10.25;9.23;;;;;;;;;;5095337;28;20056;-74
2022/08/16 03:21:31;;;;;;;17.25;10.70;;;;;;;;;;5093705;28;20510;-75
2022/08/16 03:24:04;;;;;;;12.00;9.60;;;;;;;;;;5095527;28;20052;-74
2022/08/16 03:26:30;;;;;;;11.57;10.38;;;;;;;;;;5094831;28;20084;-73
2022/08/16 03:28:57;;;;;;;14.93;10.63;;;;;;;;;;5093193;28;20053;-73
2022/08/16 03:31:24;;;;;;;11.30;9.68;;;;;;;;;;5106070;28;20059;-74
2022/08/16 03:34:00;;;;;;;14.20;10.57;;;;;;;;;;5084095;28;20048;-74
2022/08/16 03:36:26;;;;;;;10.52;9.43;;;;;;;;;;5095871;28;20056;-74
2022/08/16 03:38:58;;;;;;;13.90;10.35;;;;;;;;;;5095410;28;20053;-73
2022/08/16 03:41:25;;;;;;;13.05;9.88;;;;;;;;;;5095701;28;20058;-74
2022/08/16 03:44:13;;;;;;;11.98;10.30;;;;;;;;;;5076451;28;20045;-74
2022/08/16 03:46:59;;;;;;;11.75;10.55;;;;;;;;;;5094350;28;20053;-73
2022/08/16 03:49:26;;;;;;;11.88;9.43;;;;;;;;;;5094164;28;20502;-74
2022/08/16 03:52:02;;;;;;;14.05;10.15;;;;;;;;;;5084267;28;20521;-74
2022/08/16 03:54:29;;;;;;;10.45;9.35;;;;;;;;;;5094521;28;20913;-74
2022/08/16 03:56:55;;;;;;;13.80;10.52;;;;;;;;;;5093231;28;20063;-73
2022/08/16 03:59:23;;;;;;;12.48;9.77;;;;;;;;;;5088630;28;20084;-73
2022/08/16 04:01:49;;;;;;;12.85;9.93;;;;;;;;;;5094516;28;20135;-73
2022/08/16 04:04:19;;;;;;;11.05;9.77;;;;;;;;;;5091986;28;20581;-73
2022/08/16 04:06:59;;;;;;;10.48;9.30;;;;;;;;;;5091527;28;20048;-73
2022/08/16 04:09:29;;;;;;;10.65;9.25;;;;;;;;;;5091986;28;20064;-73
2022/08/16 04:12:01;;;;;;;13.40;9.65;;;;;;;;;;5084394;28;20053;-73
2022/08/16 04:14:27;;;;;;;13.63;10.15;;;;;;;;;;5092970;28;20088;-73
2022/08/16 04:16:59;;;;;;;14.90;10.65;;;;;;;;;;5093727;28;20053;-73
2022/08/16 04:19:27;;;;;;;12.43;10.77;;;;;;;;;;5106806;28;20059;-73
2022/08/16 04:21:57;;;;;;;14.65;11.35;;;;;;;;;;5093904;28;20044;-73
2022/08/16 04:24:26;;;;;;;18.20;12.13;;;;;;;;;;5090348;28;20441;-74
2022/08/16 04:26:54;;;;;;;13.38;10.70;;;;;;;;;;5086861;28;20139;-73
2022/08/16 04:29:20;;;;;;;14.68;11.32;;;;;;;;;;5078664;28;20052;-73
2022/08/16 04:31:50;;;;;;;13.25;11.27;;;;;;;;;;5093682;28;20565;-73
2022/08/16 04:34:27;;;;;;;11.98;10.35;;;;;;;;;;5093803;28;20964;-74
2022/08/16 04:36:54;;;;;;;14.15;11.70;;;;;;;;;;5086020;28;20058;-72
2022/08/16 04:39:22;;;;;;;13.48;11.45;;;;;;;;;;5090653;28;20110;-73
2022/08/16 04:41:50;;;;;;;15.70;11.70;;;;;;;;;;5093908;28;20128;-72
2022/08/16 04:44:23;;;;;;;16.52;12.88;;;;;;;;;;5094191;28;20491;-73
2022/08/16 04:47:09;;;;;;;15.85;13.93;;;;;;;;;;5093797;28;20067;-73
2022/08/16 04:49:49;;;;;;;14.98;13.18;;;;;;;;;;5092268;28;20102;-73
2022/08/16 04:52:18;;;;;;;15.07;12.90;;;;;;;;;;5085389;28;20065;-73
2022/08/16 04:54:59;;;;;;;16.88;13.00;;;;;;;;;;5093127;28;20057;-73
2022/08/16 04:57:26;;;;;;;16.30;12.32;;;;;;;;;;5093635;28;20059;-74
2022/08/16 04:59:55;;;;;;;16.55;11.93;;;;;;;;;;5093782;28;20075;-73
2022/08/16 05:02:21;;;;;;;16.23;12.18;;;;;;;;;;5079885;28;20115;-73
2022/08/16 05:05:08;;;;;;;19.35;13.38;;;;;;;;;;5092342;28;20091;-73
2022/08/16 05:07:42;;;;;;;14.70;13.05;;;;;;;;;;5090973;28;20049;-73
2022/08/16 05:10:25;;;;;;;16.63;12.60;;;;;;;;;;5092196;28;20055;-73
2022/08/16 05:12:52;;;;;;;15.68;13.15;;;;;;;;;;5080689;28;20057;-74
2022/08/16 05:15:19;;;;;;;14.10;12.23;;;;;;;;;;5086582;28;20533;-73
2022/08/16 05:17:47;;;;;;;15.35;12.43;;;;;;;;;;5086996;28;20048;-73
2022/08/16 05:20:24;;;;;;;15.18;12.98;;;;;;;;;;5080562;28;20110;-73
2022/08/16 05:23:10;;;;;;;19.45;14.45;;;;;;;;;;5093676;28;20057;-74
2022/08/16 05:25:39;;;;;;;15.70;12.68;;;;;;;;;;5094167;28;20146;-74
2022/08/16 05:28:14;;;;;;;17.90;13.57;;;;;;;;;;5093315;28;20111;-73
2022/08/16 05:30:42;;;;;;;21.83;13.02;;;;;;;;;;5088662;28;20053;-74
2022/08/16 05:33:08;;;;;;;17.17;13.32;;;;;;;;;;5073340;28;20127;-74
2022/08/16 05:35:42;;;;;;;17.60;14.23;;;;;;;;;;5092826;28;20106;-74
2022/08/16 05:38:08;;;;;;;24.35;14.43;;;;;;;;;;5093731;28;20063;-74
2022/08/16 05:40:56;;;;;;;19.02;14.95;;;;;;;;;;5093826;27;20040;-74
2022/08/16 05:43:26;;;;;;;16.20;14.38;;;;;;;;;;5092972;28;20553;-73
2022/08/16 05:45:57;;;;;;;19.10;14.25;;;;;;;;;;5090853;28;20087;-76
2022/08/16 05:48:24;;;;;;;17.85;15.82;;;;;;;;;;5087354;28;20057;-73
2022/08/16 05:50:52;;;;;;;23.88;16.60;;;;;;;;;;5093008;28;20051;-73
2022/08/16 05:53:19;;;;;;;21.45;17.33;;;;;;;;;;5084420;28;20494;-73
2022/08/16 05:55:49;;;;;;;24.65;17.77;;;;;;;;;;5092083;28;20044;-73
2022/08/16 05:58:16;;;;;;;25.98;19.52;;;;;;;;;;5092680;28;20053;-74
2022/08/16 06:00:57;;;;;;;22.60;18.50;;;;;;;;;;5094524;28;20048;-74
2022/08/16 06:03:23;;;;;;;21.67;19.38;;;;;;;;;;5076091;28;20050;-74
2022/08/16 06:05:49;;;;;;;32.90;20.25;;;;;;;;;;5093036;28;20053;-73
2022/08/16 06:08:16;;;;;;;20.50;17.35;;;;;;;;;;5093269;28;20053;-73
2022/08/16 06:11:02;;;;;;;22.70;18.52;;;;;;;;;;5093476;28;20064;-73
2022/08/16 06:13:36;;;;;;;18.75;16.10;;;;;;;;;;5077580;28;20053;-74
2022/08/16 06:16:07;;;;;;;22.80;18.45;;;;;;;;;;5062081;28;20053;-73
2022/08/16 06:18:43;;;;;;;24.95;19.75;;;;;;;;;;5072222;28;20542;-74
2022/08/16 06:21:11;;;;;;;24.13;19.20;;;;;;;;;;5071643;28;20100;-72
2022/08/16 06:23:37;;;;;;;21.77;18.10;;;;;;;;;;5068268;28;20057;-73
2022/08/16 06:26:04;;;;;;;21.85;19.55;;;;;;;;;;5071722;28;20076;-74
2022/08/16 06:28:33;;;;;;;25.55;19.23;;;;;;;;;;5069099;28;20064;-73
2022/08/16 06:31:02;;;;;;;24.58;18.80;;;;;;;;;;5071056;28;20476;-74
2022/08/16 06:33:30;;;;;;;22.77;17.48;;;;;;;;;;5072266;28;20106;-68
2022/08/16 06:36:10;;;;;;;24.00;18.45;;;;;;;;;;5073074;28;20092;-72
2022/08/16 06:38:36;;;;;;;27.45;19.60;;;;;;;;;;5080859;28;20080;-71
2022/08/16 06:41:20;;;;;;;24.67;19.27;;;;;;;;;;5074402;28;20057;-71
2022/08/16 06:43:47;;;;;;;22.88;19.25;;;;;;;;;;5076245;28;20103;-70
2022/08/16 06:46:21;;;;;;;23.88;18.50;;;;;;;;;;5073825;28;20049;-69
2022/08/16 06:48:47;;;;;;;20.85;17.52;;;;;;;;;;5067672;28;20049;-72
2022/08/16 06:51:17;;;;;;;23.20;18.35;;;;;;;;;;5065463;28;20049;-71
2022/08/16 06:53:44;;;;;;;24.90;19.02;;;;;;;;;;5069467;28;20053;-72
2022/08/16 06:56:10;;;;;;;22.52;16.92;;;;;;;;;;5071599;28;20053;-72
2022/08/16 06:58:48;;;;;;;20.25;16.33;;;;;;;;;;5065244;28;20114;-71
2022/08/16 07:01:14;;;;;;;23.02;17.13;;;;;;;;;;5074596;28;20076;-71
2022/08/16 07:03:41;;;;;;;20.50;16.75;;;;;;;;;;5074396;28;20052;-71
2022/08/16 07:06:22;;;;;;;23.77;17.55;;;;;;;;;;5071554;28;20065;-72
2022/08/16 07:08:52;;;;;;;21.45;17.00;;;;;;;;;;5066456;28;20453;-70
2022/08/16 07:11:19;;;;;;;24.58;16.15;;;;;;;;;;5073462;28;20049;-72
2022/08/16 07:14:06;;;;;;;22.88;15.27;;;;;;;;;;5084846;28;20052;-75
2022/08/16 07:16:50;;;;;;;17.13;14.27;;;;;;;;;;5093356;28;20053;-70
2022/08/16 07:19:16;;;;;;;20.00;15.27;;;;;;;;;;5094343;28;20052;-70
2022/08/16 07:21:44;;;;;;;20.90;16.15;;;;;;;;;;5092804;28;20111;-70
2022/08/16 07:24:25;;;;;;;16.52;14.00;;;;;;;;;;5093791;28;20075;-71
2022/08/16 07:26:55;;;;;;;16.35;13.93;;;;;;;;;;5091246;28;20559;-71
2022/08/16 07:29:22;;;;;;;23.75;14.10;;;;;;;;;;5090028;28;20052;-71
2022/08/16 07:31:51;;;;;;;16.02;14.40;;;;;;;;;;5078621;28;20052;-70
2022/08/16 07:34:19;;;;;;;18.05;13.20;;;;;;;;;;5094655;28;20056;-75
2022/08/16 07:37:05;;;;;;;15.63;13.18;;;;;;;;;;5092755;28;20130;-74
2022/08/16 07:39:35;;;;;;;16.02;13.35;;;;;;;;;;5093987;28;20272;-76
2022/08/16 07:42:08;;;;;;;19.88;13.98;;;;;;;;;;5092752;28;20060;-75
2022/08/16 07:44:45;;;;;;;19.45;15.15;;;;;;;;;;5093446;28;20176;-74
2022/08/16 07:47:15;;;;;;;22.20;15.02;;;;;;;;;;5082362;28;20088;-73
2022/08/16 07:49:43;;;;;;;18.73;13.27;;;;;;;;;;5083459;28;20512;-72
2022/08/16 07:52:24;;;;;;;15.75;12.88;;;;;;;;;;5081291;28;20055;-71
2022/08/16 07:54:55;;;;;;;17.00;14.02;;;;;;;;;;5079769;28;20105;-71
2022/08/16 07:57:22;;;;;;;18.70;13.82;;;;;;;;;;5093725;28;20059;-72
2022/08/16 07:59:49;;;;;;;18.02;13.18;;;;;;;;;;5092535;28;20049;-73
2022/08/16 08:02:16;;;;;;;15.68;12.00;;;;;;;;;;5089865;28;20068;-73
2022/08/16 08:04:46;;;;;;;21.50;14.88;;;;;;;;;;5093716;28;20091;-72
2022/08/16 08:07:13;;;;;;;14.80;12.52;;;;;;;;;;5088995;28;20060;-73
2022/08/16 08:09:46;;;;;;;14.25;11.55;;;;;;;;;;5090088;28;20526;-72
2022/08/16 08:12:15;;;;;;;17.05;12.20;;;;;;;;;;5099146;28;20052;-71
2022/08/16 08:15:01;;;;;;;12.35;11.05;;;;;;;;;;5097576;28;20074;-71
2022/08/16 08:17:29;;;;;;;17.75;12.07;;;;;;;;;;5093009;28;20063;-69
2022/08/16 08:20:11;;;;;;;15.68;11.60;;;;;;;;;;5094284;28;20538;-70
2022/08/16 08:22:38;;;;;;;17.60;12.02;;;;;;;;;;5093014;28;20056;-71
2022/08/16 08:25:06;;;;;;;16.75;11.85;;;;;;;;;;5091398;28;20048;-70
2022/08/16 08:27:34;;;;;;;13.98;12.45;;;;;;;;;;5087783;28;20049;-73
2022/08/16 08:30:03;;;;;;;16.70;13.75;;;;;;;;;;5091439;28;20059;-72
2022/08/16 08:32:49;;;;;;;15.93;13.45;;;;;;;;;;5091434;28;20061;-71
2022/08/16 08:35:25;;;;;;;15.77;13.50;;;;;;;;;;5090065;28;20048;-72
2022/08/16 08:37:54;;;;;;;16.23;12.30;;;;;;;;;;5083355;28;20059;-73
2022/08/16 08:40:22;;;;;;;13.68;11.38;;;;;;;;;;5092932;28;20934;-71
2022/08/16 08:42:52;;;;;;;16.85;12.65;;;;;;;;;;5089785;28;20110;-73
2022/08/16 08:45:23;;;;;;;15.32;12.68;;;;;;;;;;5086900;28;21060;-72
2022/08/16 08:48:10;;;;;;;15.95;12.68;;;;;;;;;;5085877;28;20057;-74
2022/08/16 08:50:56;;;;;;;17.73;11.48;;;;;;;;;;5093253;28;20063;-74
2022/08/16 08:53:25;;;;;;;14.52;12.18;;;;;;;;;;5093258;28;20048;-74
2022/08/16 08:55:55;;;;;;;13.30;11.82;;;;;;;;;;5089369;28;20443;-74
2022/08/16 08:58:24;;;;;;;20.40;14.98;;;;;;;;;;5093225;28;20057;-75
2022/08/16 09:00:59;;;;;;;;;;;;;;;;;;5093580;28;20079;-75
2022/08/16 09:03:28;;;;;;;18.13;13.98;;;;;;;;;;5081055;28;44932;-75
2022/08/16 09:05:58;;;;;;;16.98;12.88;;;;;;;;;;5091660;28;20055;-72
2022/08/16 09:08:25;;;;;;;17.15;14.13;;;;;;;;;;5088079;28;20890;-72
2022/08/16 09:10:54;;;;;;;15.27;13.63;;;;;;;;;;5089726;28;20058;-74
2022/08/16 09:13:27;;;;;;;17.77;14.05;;;;;;;;;;5090613;28;20581;-72
2022/08/16 09:15:57;;;;;;;15.80;13.27;;;;;;;;;;5084378;28;20059;-73
2022/08/16 09:18:24;;;;;;;23.40;14.95;;;;;;;;;;5088037;28;20053;-70
2022/08/16 09:21:02;;;;;;;14.50;12.38;;;;;;;;;;5091767;28;20063;-70
2022/08/16 09:23:30;;;;;;;18.60;13.38;;;;;;;;;;5090915;28;20500;-69
2022/08/16 09:26:03;;;;;;;19.75;13.82;;;;;;;;;;5092537;28;20590;-71
2022/08/16 09:28:50;;;;;;;21.92;14.15;;;;;;;;;;5080822;28;20061;-72
2022/08/16 09:31:36;;;;;;;15.45;13.35;;;;;;;;;;5090633;28;20939;-71
2022/08/16 09:34:06;;;;;;;15.65;11.73;;;;;;;;;;5088527;28;20057;-73
2022/08/16 09:36:33;;;;;;;16.52;12.48;;;;;;;;;;5079599;28;20052;-74
2022/08/16 09:39:02;;;;;;;18.02;12.85;;;;;;;;;;5092938;28;20479;-72
2022/08/16 09:41:28;;;;;;;14.18;12.77;;;;;;;;;;5090023;28;20140;-73
2022/08/16 09:43:55;;;;;;;16.75;12.80;;;;;;;;;;5091684;28;20052;-73
2022/08/16 09:46:26;;;;;;;13.60;12.20;;;;;;;;;;5093033;28;20517;-73
2022/08/16 09:49:12;;;;;;;13.88;11.20;;;;;;;;;;5095485;28;20086;-72
2022/08/16 09:51:40;;;;;;;14.38;12.88;;;;;;;;;;5092495;28;20158;-72
2022/08/16 09:54:09;;;;;;;14.70;12.13;;;;;;;;;;5091690;28;20059;-72
2022/08/16 09:56:42;;;;;;;16.70;10.88;;;;;;;;;;5090166;28;20171;-72
2022/08/16 09:59:19;;;;;;;13.95;11.25;;;;;;;;;;5076411;28;20060;-73
2022/08/16 10:01:49;;;;;;;15.80;11.30;;;;;;;;;;5074517;28;20053;-72
2022/08/16 10:04:17;;;;;;;13.70;10.13;;;;;;;;;;5079986;28;20631;-73
2022/08/16 10:07:00;;;;;;;15.23;9.45;;;;;;;;;;5086649;28;20740;-74
2022/08/16 10:09:31;;;;;;;10.25;8.60;;;;;;;;;;5092614;28;20143;-75
2022/08/16 10:15:08;;;;;;;13.68;9.65;;;;;;;;;;5088071;28;20163;-75
2022/08/16 10:17:41;;;;;;;14.90;10.25;;;;;;;;;;5090647;28;20049;-73
2022/08/16 10:20:10;;;;;;;16.30;10.40;;;;;;;;;;5089990;28;20049;-73
2022/08/16 10:22:43;;;;;;;14.02;11.18;;;;;;;;;;5072357;28;20119;-74
2022/08/16 10:25:12;;;;;;;11.13;9.43;;;;;;;;;;5084323;28;20593;-73
2022/08/16 10:27:59;;;;;;;12.88;8.75;;;;;;;;;;5081394;28;20053;-74
2022/08/16 10:30:45;;;;;;;10.77;8.88;;;;;;;;;;5087689;28;20919;-74
2022/08/16 10:33:21;;;;;;;10.02;8.70;;;;;;;;;;5073629;28;20064;-74
2022/08/16 10:35:59;;;;;;;12.40;8.57;;;;;;;;;;5072605;28;20057;-75
2022/08/16 10:38:29;;;;;;;13.13;9.20;;;;;;;;;;5083607;28;20044;-71
2022/08/16 10:40:58;;;;;;;12.45;9.88;;;;;;;;;;5089728;28;20519;-74
2022/08/16 10:43:27;;;;;;;11.07;9.32;;;;;;;;;;5091771;28;20514;-74
2022/08/16 10:45:56;;;;;;;11.65;10.45;;;;;;;;;;5122657;27;20056;-74
2022/08/16 10:48:26;;;;;;;11.32;9.80;;;;;;;;;;5089430;28;20079;-74
2022/08/16 10:50:57;;;;;;;12.07;10.85;;;;;;;;;;5081913;28;20056;-74
2022/08/16 10:53:29;;;;;;;13.07;9.82;;;;;;;;;;5086716;28;20064;-74
2022/08/16 10:55:59;;;;;;;;;;;;;;;;;;5088822;28;21122;-73
2022/08/16 10:58:27;;;;;;;11.07;8.95;;;;;;;;;;5073556;28;47176;-73
2022/08/16 11:01:01;;;;;;;11.10;9.23;;;;;;;;;;5074421;28;20060;-73
2022/08/16 11:03:48;;;;;;;11.50;9.70;;;;;;;;;;5089153;28;20079;-73
2022/08/16 11:06:20;;;;;;;15.40;11.20;;;;;;;;;;5090348;28;20041;-73
2022/08/16 11:08:53;;;;;;;16.67;11.18;;;;;;;;;;5088903;28;20057;-73
2022/08/16 11:11:39;;;;;;;13.02;11.02;;;;;;;;;;5087888;28;20052;-72
2022/08/16 11:14:25;;;;;;;11.23;10.02;;;;;;;;;;5090375;28;20049;-73
2022/08/16 11:16:51;;;;;;;11.82;10.52;;;;;;;;;;5090884;28;20052;-73
2022/08/16 11:19:37;;;;;;;13.25;12.05;;;;;;;;;;5090010;28;20052;-73
2022/08/16 11:22:24;;;;;;;13.27;11.40;;;;;;;;;;5095786;28;20052;-72
2022/08/16 11:25:10;;;;;;;13.65;11.88;;;;;;;;;;5099003;27;20061;-72
2022/08/16 11:27:41;;;;;;;13.90;11.48;;;;;;;;;;5090192;28;20053;-73
2022/08/16 11:30:11;;;;;;;16.52;11.13;;;;;;;;;;5086689;28;20056;-72
2022/08/16 11:32:45;;;;;;;13.57;11.52;;;;;;;;;;5092848;28;20057;-72
2022/08/16 11:35:13;;;;;;;15.93;10.40;;;;;;;;;;5081687;28;20060;-72
2022/08/16 11:37:47;;;;;;;11.80;10.57;;;;;;;;;;5074682;28;20056;-73
2022/08/16 11:40:38;;;;;;;14.15;12.73;;;;;;;;;;5087198;28;20071;-73
2022/08/16 11:43:09;;;;;;;14.73;12.50;;;;;;;;;;5083512;28;20052;-73
2022/08/16 11:45:37;;;;;;;14.15;12.75;;;;;;;;;;5092587;28;20480;-72
2022/08/16 11:48:03;;;;;;;19.55;13.43;;;;;;;;;;5092283;28;20048;-73
2022/08/16 11:50:32;;;;;;;16.63;10.80;;;;;;;;;;5086070;28;20456;-72
2022/08/16 11:52:59;;;;;;;14.45;11.95;;;;;;;;;;5091496;28;20051;-72
2022/08/16 11:55:28;;;;;;;15.02;12.93;;;;;;;;;;5092627;27;20048;-72
2022/08/16 11:57:55;;;;;;;15.82;10.68;;;;;;;;;;5093533;28;20052;-73
2022/08/16 12:00:22;;;;;;;15.88;13.38;;;;;;;;;;5085629;28;20108;-72
2022/08/16 12:03:10;;;;;;;12.02;10.90;;;;;;;;;;5085776;28;20063;-73
2022/08/16 12:05:37;;;;;;;12.55;11.13;;;;;;;;;;5082519;28;20084;-73
2022/08/16 12:08:05;;;;;;;15.57;10.40;;;;;;;;;;5088805;28;20080;-75
2022/08/16 12:10:32;;;;;;;13.27;11.35;;;;;;;;;;5086869;28;20057;-74
2022/08/16 12:12:58;;;;;;;11.93;9.82;;;;;;;;;;5083120;28;20065;-74
2022/08/16 12:15:28;;;;;;;15.55;10.55;;;;;;;;;;5089355;28;20079;-74
2022/08/16 12:17:56;;;;;;;15.48;9.07;;;;;;;;;;5085874;28;20064;-75
2022/08/16 12:20:26;;;;;;;13.30;8.85;;;;;;;;;;5092242;28;20078;-74
2022/08/16 12:22:56;;;;;;;12.95;9.50;;;;;;;;;;5087960;28;20147;-75
2022/08/16 12:25:25;;;;;;;11.23;10.10;;;;;;;;;;5076889;28;20052;-75
2022/08/16 12:27:54;;;;;;;12.85;9.45;;;;;;;;;;5077044;28;20053;-74
2022/08/16 12:30:27;;;;;;;11.05;9.27;;;;;;;;;;5088351;28;20060;-74
2022/08/16 12:33:00;;;;;;;10.20;9.20;;;;;;;;;;5085806;28;20087;-73
2022/08/16 12:35:29;;;;;;;13.80;9.30;;;;;;;;;;5089018;28;20073;-74
2022/08/16 12:37:56;;;;;;;10.43;9.20;;;;;;;;;;5089962;28;20087;-74
2022/08/16 12:40:26;;;;;;;12.75;11.52;;;;;;;;;;5085076;27;20090;-74
2022/08/16 12:42:56;;;;;;;20.10;13.00;;;;;;;;;;5089012;28;20158;-74
2022/08/16 12:45:26;;;;;;;17.27;14.25;;;;;;;;;;5092920;28;20052;-70
2022/08/16 12:50:57;;;;;;;18.40;10.85;;;;;;;;;;5081433;28;20049;-74
2022/08/16 12:53:26;;;;;;;14.48;12.25;;;;;;;;;;5085537;28;20088;-72
2022/08/16 12:55:57;;;;;;;14.88;12.55;;;;;;;;;;5091465;28;20054;-75
2022/08/16 12:58:26;;;;;;;12.85;11.55;;;;;;;;;;5092242;28;20487;-73
2022/08/16 13:01:12;;;;;;;13.68;12.38;;;;;;;;;;5089860;28;20060;-74
2022/08/16 13:03:40;;;;;;;14.65;13.07;;;;;;;;;;5085970;28;20057;-71
2022/08/16 13:06:06;;;;;;;18.50;13.95;;;;;;;;;;5085370;28;20054;-73
2022/08/16 13:08:34;;;;;;;13.60;11.85;;;;;;;;;;5072704;28;20049;-73
2022/08/16 13:11:03;;;;;;;13.10;11.80;;;;;;;;;;5091329;28;20946;-73
2022/08/16 13:13:30;;;;;;;16.08;12.20;;;;;;;;;;5092294;28;20155;-72
2022/08/16 13:15:58;;;;;;;12.43;10.88;;;;;;;;;;5092897;28;20048;-71
2022/08/16 13:18:30;;;;;;;15.05;12.20;;;;;;;;;;5087788;28;20060;-74
2022/08/16 13:21:02;;;;;;;17.50;13.07;;;;;;;;;;5090931;28;20095;-72
2022/08/16 13:23:29;;;;;;;15.95;12.05;;;;;;;;;;5091391;28;20052;-72
2022/08/16 13:25:56;;;;;;;10.70;9.65;;;;;;;;;;5087516;28;20056;-72
2022/08/16 13:28:22;;;;;;;16.15;10.05;;;;;;;;;;5092376;28;20059;-73
2022/08/16 13:30:50;;;;;;;9.85;8.85;;;;;;;;;;5091850;28;20049;-73
2022/08/16 13:33:22;;;;;;;10.15;9.13;;;;;;;;;;5082639;28;20057;-73
2022/08/16 13:35:56;;;;;;;11.68;9.60;;;;;;;;;;5089957;28;20499;-75
2022/08/16 13:38:25;;;;;;;12.30;9.75;;;;;;;;;;5120892;27;20111;-75
2022/08/16 13:40:57;;;;;;;11.55;9.80;;;;;;;;;;5084337;28;20413;-75
2022/08/16 13:43:25;;;;;;;15.65;10.05;;;;;;;;;;5088123;28;20504;-75
2022/08/16 13:45:52;;;;;;;11.48;9.15;;;;;;;;;;5072829;28;20057;-74
2022/08/16 13:48:20;;;;;;;11.07;9.98;;;;;;;;;;5076986;28;20136;-74
2022/08/16 13:50:51;;;;;;;9.52;8.52;;;;;;;;;;5084046;28;20052;-74
2022/08/16 13:53:18;;;;;;;8.82;7.70;;;;;;;;;;5090256;28;20048;-75
2022/08/16 13:55:50;;;;;;;9.45;8.48;;;;;;;;;;5083485;28;20124;-75
2022/08/16 13:58:24;;;;;;;11.90;8.73;;;;;;;;;;5078073;28;20053;-74
2022/08/16 14:01:05;;;;;;;11.90;9.27;;;;;;;;;;5084552;28;20110;-74
2022/08/16 14:03:35;;;;;;;14.00;7.72;;;;;;;;;;5090915;28;20118;-71
2022/08/16 14:06:02;;;;;;;9.82;8.80;;;;;;;;;;5072203;28;20056;-71
2022/08/16 14:08:28;;;;;;;9.52;8.52;;;;;;;;;;5089310;28;20492;-73
2022/08/16 14:10:55;;;;;;;9.00;7.28;;;;;;;;;;5090214;28;20052;-73
2022/08/16 14:13:21;;;;;;;8.82;7.90;;;;;;;;;;5090652;28;20067;-72
2022/08/16 14:15:48;;;;;;;9.80;8.63;;;;;;;;;;5091974;28;20061;-75
2022/08/16 14:18:15;;;;;;;11.48;8.95;;;;;;;;;;5091883;28;20048;-74
2022/08/16 14:20:45;;;;;;;10.85;9.35;;;;;;;;;;5088615;28;20060;-74
2022/08/16 14:23:16;;;;;;;11.95;9.02;;;;;;;;;;5073114;28;20064;-76
2022/08/16 14:25:49;;;;;;;13.43;11.73;;;;;;;;;;5086834;28;20520;-73
2022/08/16 14:28:20;;;;;;;13.65;11.57;;;;;;;;;;5086726;28;20114;-72
2022/08/16 14:30:51;;;;;;;16.20;11.70;;;;;;;;;;5081269;28;20055;-74
2022/08/16 14:33:18;;;;;;;14.27;11.25;;;;;;;;;;5090602;28;20063;-72
2022/08/16 14:35:44;;;;;;;17.23;12.43;;;;;;;;;;5090388;28;20162;-75
2022/08/16 14:38:16;;;;;;;19.88;15.45;;;;;;;;;;5089428;28;20068;-76
2022/08/16 14:40:46;;;;;;;17.88;13.90;;;;;;;;;;5091289;28;20056;-72
2022/08/16 14:43:20;;;;;;;17.45;15.73;;;;;;;;;;5089489;28;20144;-73
2022/08/16 14:45:47;;;;;;;16.63;15.02;;;;;;;;;;5090705;28;20088;-73
2022/08/16 14:48:16;;;;;;;15.75;14.07;;;;;;;;;;5084172;28;20144;-74
2022/08/16 14:50:52;;;;;;;16.30;13.02;;;;;;;;;;5089827;28;20905;-75
2022/08/16 14:53:18;;;;;;;18.42;15.48;;;;;;;;;;5086563;28;20150;-74
2022/08/16 14:55:45;;;;;;;18.63;16.65;;;;;;;;;;5079158;28;20053;-75